DWH weather

David Wayne Hooks Memorial Airport
Houston, Texas, United States

Public forecast

Using degrees Fahrenheit for public forecast. Weather courtesy of forecast.io.

Current aviation weather report (METAR) for David Wayne Hooks Memorial Airport

Retrieved 2020/02/21 23:53 UTC (1 hour ago):

KDWH 212353Z 02005KT 10SM CLR 11/M02 A3050 RMK AO2 SLP326 T01111017 10133 20106 56011

Aviation forecast (TAF) for David Wayne Hooks Memorial Airport

Forecast is more than 12 hours old.

Retrieved 2017/02/07 12:51 UTC (3 years ago):

TAF KDWH 071148Z 0712/0812 20009G15KT P6SM SCT022 OVC030 TEMPO 0712/0715 BKN018 FM071500 23010KT P6SM BKN015 FM071900 25010KT P6SM SCT025 FM080100 22005KT P6SM SCT250 TEMPO 0807/0809 3SM BR BKN013 FM080900 VRB03KT 2SM BR OVC008